Time;durP1;ratioP1;P1;durP2;ratioP2;P2;SDS_P1;SDS_P2;PMS_P1;PMS_P2;Temp;Humidity;BMP_temperature;BMP_pressure;BME280_temperature;BME280_humidity;BME280_pressure;Samples;Min_cycle;Max_cycle;Signal;HPM_P1;HPM_P2
2023/07/22 00:01:13;;;;;;;3.00;2.40;;;;;;;;;;5020330;28;20014;-60
2023/07/22 00:03:40;;;;;;;2.92;1.98;;;;;;;;;;5020974;28;20030;-57
2023/07/22 00:06:07;;;;;;;5.72;2.20;;;;;;;;;;5019322;28;20022;-64
2023/07/22 00:08:34;;;;;;;3.63;2.13;;;;;;;;;;5019122;28;20041;-58
2023/07/22 00:11:01;;;;;;;4.18;2.10;;;;;;;;;;5019739;28;20244;-60
2023/07/22 00:13:37;;;;;;;3.25;1.88;;;;;;;;;;5019517;28;20083;-58
2023/07/22 00:16:04;;;;;;;4.10;1.90;;;;;;;;;;5019540;28;20155;-62
2023/07/22 00:18:40;;;;;;;7.28;2.58;;;;;;;;;;5019701;28;20266;-60
2023/07/22 00:21:11;;;;;;;7.65;1.88;;;;;;;;;;5020511;28;20041;-59
2023/07/22 00:23:37;;;;;;;8.45;3.50;;;;;;;;;;5021672;28;20073;-62
2023/07/22 00:26:09;;;;;;;8.38;3.72;;;;;;;;;;5003110;28;20063;-59
2023/07/22 00:28:41;;;;;;;6.68;3.63;;;;;;;;;;5020985;28;20040;-59
2023/07/22 00:31:08;;;;;;;6.03;3.42;;;;;;;;;;5020568;28;20033;-55
2023/07/22 00:33:35;;;;;;;45.85;5.53;;;;;;;;;;5034399;28;20069;-56
2023/07/22 00:36:13;;;;;;;66.95;8.07;;;;;;;;;;5040260;28;20029;-60
2023/07/22 00:38:42;;;;;;;38.53;5.35;;;;;;;;;;5040722;28;20156;-56
2023/07/22 00:41:12;;;;;;;29.88;3.70;;;;;;;;;;5040218;28;20025;-63
2023/07/22 00:43:38;;;;;;;17.42;3.35;;;;;;;;;;5040250;28;20037;-59
2023/07/22 00:46:08;;;;;;;9.98;2.67;;;;;;;;;;5041098;28;20026;-56
2023/07/22 00:48:39;;;;;;;12.10;2.55;;;;;;;;;;5043529;28;20014;-61
2023/07/22 00:51:18;;;;;;;;;;;;;;;;;;;;;
2023/07/22 00:53:45;;;;;;;9.23;2.83;;;;;;;;;;5044009;28;20333;-53
2023/07/22 00:56:12;;;;;;;9.73;3.40;;;;;;;;;;5043610;28;20037;-57
2023/07/22 00:58:41;;;;;;;7.63;3.83;;;;;;;;;;5043061;28;20336;-58
2023/07/22 01:01:13;;;;;;;16.58;6.65;;;;;;;;;;5043913;28;20047;-57
2023/07/22 01:03:42;;;;;;;8.13;5.47;;;;;;;;;;5043189;28;20049;-57
2023/07/22 01:06:09;;;;;;;10.50;4.72;;;;;;;;;;5043806;28;20030;-58
2023/07/22 01:08:36;;;;;;;32.25;5.55;;;;;;;;;;5043902;28;20051;-57
2023/07/22 01:11:03;;;;;;;41.88;6.60;;;;;;;;;;5044007;28;20057;-59
2023/07/22 01:13:36;;;;;;;51.58;6.72;;;;;;;;;;5043224;28;20096;-61
2023/07/22 01:16:03;;;;;;;21.52;4.60;;;;;;;;;;5043554;28;20017;-57
2023/07/22 01:18:39;;;;;;;15.13;3.65;;;;;;;;;;5042923;28;20082;-57
2023/07/22 01:21:31;;;;;;;10.02;2.78;;;;;;;;;;5043691;28;20053;-60
2023/07/22 01:24:16;;;;;;;8.45;2.30;;;;;;;;;;5024998;28;20033;-56
2023/07/22 01:26:43;;;;;;;15.10;2.38;;;;;;;;;;5042929;28;20067;-59
2023/07/22 01:29:09;;;;;;;10.48;2.20;;;;;;;;;;5042985;28;20033;-60
2023/07/22 01:31:36;;;;;;;5.95;2.28;;;;;;;;;;5043455;28;20084;-56
2023/07/22 01:34:04;;;;;;;8.35;2.33;;;;;;;;;;5043251;28;20055;-63
2023/07/22 01:36:30;;;;;;;7.45;2.50;;;;;;;;;;5043280;28;20040;-56
2023/07/22 01:38:57;;;;;;;9.27;2.50;;;;;;;;;;5042762;28;20215;-56
2023/07/22 01:41:32;;;;;;;10.88;2.25;;;;;;;;;;5042955;28;20045;-58
2023/07/22 01:44:02;;;;;;;5.07;1.73;;;28.20;99.90;;;;;;5042898;28;20041;-60
2023/07/22 01:46:30;;;;;;;9.43;2.95;;;;;;;;;;5025300;28;20025;-59
2023/07/22 01:48:57;;;;;;;5.93;2.08;;;;;;;;;;5042627;28;20036;-56
2023/07/22 01:51:32;;;;;;;6.32;2.25;;;;;;;;;;5042825;28;20038;-57
2023/07/22 01:54:15;;;;;;;37.25;6.25;;;;;;;;;;5042582;28;20049;-58
2023/07/22 01:56:42;;;;;;;29.08;5.25;;;;;;;;;;5042875;28;20036;-62
2023/07/22 01:59:11;;;;;;;41.25;6.40;;;;;;;;;;5042173;28;20054;-57
2023/07/22 02:01:38;;;;;;;33.78;5.50;;;;;;;;;;5042465;28;20057;-59
2023/07/22 02:04:29;;;;;;;18.48;3.63;;;;;;;;;;5025391;28;20211;-59
2023/07/22 02:06:56;;;;;;;14.95;3.20;;;;;;;;;;5041737;28;20329;-57
2023/07/22 02:09:22;;;;;;;18.20;3.95;;;;;;;;;;5042531;28;20030;-55
2023/07/22 02:11:49;;;;;;;36.63;5.20;;;;;;;;;;5042739;28;20040;-57
2023/07/22 02:14:19;;;;;;;15.73;4.05;;;;;;;;;;5042226;28;20029;-65
2023/07/22 02:16:46;;;;;;;18.20;4.25;;;;;;;;;;5042193;28;20090;-58
2023/07/22 02:19:25;;;;;;;10.05;2.97;;;;;;;;;;5042164;28;20033;-56
2023/07/22 02:22:05;;;;;;;19.02;3.20;;;;;;;;;;5042192;28;20060;-56
2023/07/22 02:24:32;;;;;;;27.17;5.28;;;;;;;;;;5024277;28;20025;-59
2023/07/22 02:27:00;;;;;;;49.67;6.88;;;;;;;;;;5024402;28;20024;-58
2023/07/22 02:29:27;;;;;;;44.63;6.95;;;;;;;;;;5042293;28;20035;-60
2023/07/22 02:31:53;;;;;;;52.97;7.38;;;;;;;;;;5025011;28;20055;-58
2023/07/22 02:34:26;;;;;;;68.55;8.13;;;;;;;;;;5042241;28;20127;-61
2023/07/22 02:37:10;;;;;;;45.40;7.53;;;;;;;;;;5042499;28;20070;-58
2023/07/22 02:39:59;;;;;;;38.55;6.95;;;;;;;;;;5042126;28;20328;-63
2023/07/22 02:42:29;;;;;;;40.15;6.18;;;;;;;;;;5026609;28;20029;-60
2023/07/22 02:45:16;;;;;;;30.20;5.57;;;;;;;;;;5042100;28;20045;-61
2023/07/22 02:47:43;;;;;;;24.13;4.78;;;;;;;;;;5042261;28;20036;-62
2023/07/22 02:50:10;;;;;;;19.05;4.88;;;;;;;;;;5041853;28;20044;-59
2023/07/22 02:52:38;;;;;;;37.67;6.28;;;;;;;;;;5024582;28;20033;-60
2023/07/22 02:55:21;;;;;;;46.65;7.55;;;;;;;;;;5042089;28;20135;-60
2023/07/22 02:57:50;;;;;;;42.42;7.82;;;;;;;;;;5042360;28;20021;-56
2023/07/22 03:00:24;;;;;;;55.47;7.28;;;;;;;;;;5041932;28;20037;-58
2023/07/22 03:03:05;;;;;;;36.75;6.80;;;;;;;;;;5041990;28;20017;-60
2023/07/22 03:05:35;;;;;;;40.83;6.40;;;;;;;;;;5041929;28;20058;-56
2023/07/22 03:08:03;;;;;;;46.20;6.57;;;;;;;;;;5041304;28;20037;-58
2023/07/22 03:10:32;;;;;;;43.55;7.15;;;;;;;;;;5041600;28;20034;-59
2023/07/22 03:13:03;;;;;;;41.92;5.97;;;;;;;;;;5041905;28;20017;-57
2023/07/22 03:15:31;;;;;;;26.67;4.95;;;;;;;;;;5041692;28;20033;-56
2023/07/22 03:17:59;;;;;;;18.55;3.90;;;;;;;;;;5041766;28;20034;-56
2023/07/22 03:20:28;;;;;;;17.42;3.55;;;;;;;;;;5041012;28;20423;-56
2023/07/22 03:22:56;;;;;;;10.73;3.03;;;;;;;;;;5047369;28;20360;-53
2023/07/22 03:25:23;;;;;;;8.68;2.63;;;;;;;;;;5047845;28;20029;-52
2023/07/22 03:27:52;;;;;;;9.80;2.67;;;;;;;;;;5052884;28;20346;-48
2023/07/22 03:30:20;;;;;;;8.02;2.65;;;;;;;;;;5041820;28;20337;-51
2023/07/22 03:33:14;;;;;;;9.65;2.70;;;;;;;;;;5034108;28;20057;-49
2023/07/22 03:35:45;;;;;;;9.02;2.78;;;;;;;;;;5022193;28;20124;-56
2023/07/22 03:38:26;;;;;;;8.15;3.63;;;;;;;;;;5021779;28;20079;-53
2023/07/22 03:40:53;;;;;;;10.23;5.43;;;;;;;;;;5041020;28;20033;-46
2023/07/22 03:43:20;;;;;;;11.85;7.80;;;;;;;;;;5041316;28;20048;-51
2023/07/22 03:45:46;;;;;;;14.02;7.10;;;;;;;;;;5041371;28;20321;-46
2023/07/22 03:48:13;;;;;;;12.85;5.78;;;;;;;;;;5041302;28;20090;-46
2023/07/22 03:50:40;;;;;;;10.63;6.68;;;;;;;;;;5040901;28;20062;-50
2023/07/22 03:53:06;;;;;;;12.80;7.30;;;;;;;;;;5041171;28;20044;-52
2023/07/22 03:55:33;;;;;;;10.00;6.60;;;;;;;;;;5040922;28;20064;-53
2023/07/22 03:58:00;;;;;;;10.68;6.70;;;;;;;;;;5033285;28;20038;-60
2023/07/22 04:00:26;;;;;;;9.27;5.55;;;;;;;;;;5020899;28;20050;-48
2023/07/22 04:02:53;;;;;;;9.23;5.72;;;;;;;;;;5029779;28;20018;-52
2023/07/22 04:05:20;;;;;;;9.23;4.78;;;;;;;;;;5021034;28;20049;-51
2023/07/22 04:07:46;;;;;;;7.60;4.10;;;;;;;;;;5021018;28;20021;-47
2023/07/22 04:10:13;;;;;;;6.78;3.40;;;;;;;;;;5020740;28;20056;-49
2023/07/22 04:12:40;;;;;;;7.60;3.47;;;;;;;;;;5023726;28;20038;-61
2023/07/22 04:15:07;;;;;;;4.55;2.78;;;;;;;;;;5029555;28;20367;-52
2023/07/22 04:17:33;;;;;;;5.20;2.58;;;;;;;;;;5040050;28;20034;-54
2023/07/22 04:20:00;;;;;;;4.75;2.50;;;;;;;;;;5040406;28;20037;-48
2023/07/22 04:22:26;;;;;;;3.65;2.40;;;;;;;;;;5043006;28;20013;-55
2023/07/22 04:24:53;;;;;;;5.13;2.22;;;;;;;;;;5043761;28;20045;-55
2023/07/22 04:27:20;;;;;;;3.47;2.13;;;;;;;;;;5041828;28;20025;-52
2023/07/22 04:29:46;;;;;;;4.78;2.15;;;;;;;;;;5032848;28;20081;-55
2023/07/22 04:32:13;;;;;;;3.70;1.60;;;;;;;;;;5023888;28;20075;-51
2023/07/22 04:34:40;;;;;;;4.28;1.52;;;;;;;;;;5024057;28;20034;-49
2023/07/22 04:37:06;;;;;;;6.10;2.00;;;;;;;;;;5023931;28;20063;-50
2023/07/22 04:39:33;;;;;;;3.85;1.85;;;;;;;;;;5023728;28;20252;-51
2023/07/22 04:42:00;;;;;;;2.45;1.40;;;;;;;;;;5024073;28;20036;-57
2023/07/22 04:44:28;;;;;;;3.13;1.67;;;;;;;;;;5033649;28;20197;-52
2023/07/22 04:46:55;;;;;;;4.32;1.85;;;;;;;;;;5024715;28;20089;-52
2023/07/22 04:49:22;;;;;;;4.30;1.70;;;;;;;;;;5036519;28;20376;-51
2023/07/22 04:51:50;;;;;;;3.08;1.20;;;;;;;;;;5043430;28;20025;-58
2023/07/22 04:54:17;;;;;;;5.45;1.60;;;;;;;;;;5043491;28;20021;-47
2023/07/22 04:56:44;;;;;;;3.38;1.30;;;;;;;;;;5029714;28;20041;-47
2023/07/22 04:59:12;;;;;;;2.30;1.38;;;;;;;;;;5023491;28;20273;-48
2023/07/22 05:01:39;;;;;;;2.83;1.25;;;;;;;;;;5027808;28;20022;-48
2023/07/22 05:04:06;;;;;;;4.68;1.45;;;;;;;;;;5030708;28;20076;-52
2023/07/22 05:06:33;;;;;;;4.68;1.52;;;;;;;;;;5023465;28;20067;-54
2023/07/22 05:08:59;;;;;;;3.08;1.60;;;;;;;;;;5023915;28;20175;-48
2023/07/22 05:11:26;;;;;;;2.00;1.30;;;;;;;;;;5023553;28;20033;-51
2023/07/22 05:13:53;;;;;;;3.08;1.13;;;;;;;;;;5023974;28;20022;-51
2023/07/22 05:16:21;;;;;;;2.15;1.10;;;;;;;;;;5023322;28;20026;-52
2023/07/22 05:18:47;;;;;;;2.97;1.20;;;;;;;;;;5023662;28;20026;-52
2023/07/22 05:21:14;;;;;;;1.63;1.20;;;;;;;;;;5023317;28;20091;-53
2023/07/22 05:23:41;;;;;;;4.43;1.20;;;;;;;;;;5023074;28;20014;-46
2023/07/22 05:26:08;;;;;;;4.97;1.20;;;;;;;;;;5023115;28;20034;-45
2023/07/22 05:28:34;;;;;;;2.47;1.20;;;;;;;;;;5023752;28;20017;-47
2023/07/22 05:31:01;;;;;;;4.05;1.27;;;;;;;;;;5023133;28;20053;-47
2023/07/22 05:33:28;;;;;;;1.65;1.10;;;;;;;;;;5022025;28;20367;-46
2023/07/22 05:35:54;;;;;;;3.90;1.38;;;;;;;;;;5023099;28;20030;-52
2023/07/22 05:38:21;;;;;;;2.78;1.23;;;;;;;;;;5023723;28;20034;-56
2023/07/22 05:40:47;;;;;;;2.70;1.30;;;;;;;;;;5022861;28;20045;-54
2023/07/22 05:43:14;;;;;;;2.92;1.00;;;;;;;;;;5005694;28;20037;-55
2023/07/22 05:45:41;;;;;;;2.45;1.10;;;;;;;;;;5023001;28;20030;-50
2023/07/22 05:48:07;;;;;;;2.30;1.10;;;;;;;;;;5022951;28;20067;-47
2023/07/22 05:50:34;;;;;;;4.15;1.20;;;;;;;;;;5022868;28;20090;-47
2023/07/22 05:53:01;;;;;;;2.35;1.20;;;;;;;;;;5023188;28;20046;-48
2023/07/22 05:55:27;;;;;;;2.03;1.02;;;;;;;;;;5022671;28;20356;-53
2023/07/22 05:57:54;;;;;;;2.78;1.15;;;;;;;;;;5023102;28;20093;-55
2023/07/22 06:00:21;;;;;;;2.55;1.23;;;;;;;;;;5022617;28;20030;-48
2023/07/22 06:02:48;;;;;;;3.83;1.10;;;;;;;;;;5022645;28;20067;-49
2023/07/22 06:05:14;;;;;;;2.35;0.90;;;;;;;;;;5022898;28;20075;-50
2023/07/22 06:07:41;;;;;;;2.53;0.82;;;;;;;;;;5022561;28;20059;-49
2023/07/22 06:10:08;;;;;;;2.00;1.17;;;;;;;;;;5022448;28;20038;-54
2023/07/22 06:12:35;;;;;;;1.35;0.80;;;;;;;;;;5022792;28;20022;-48
2023/07/22 06:15:03;;;;;;;3.22;0.85;;;;;;;;;;5022965;28;20052;-57
2023/07/22 06:17:29;;;;;;;1.33;0.80;;;;;;;;;;5022740;28;20041;-62
2023/07/22 06:19:56;;;;;;;2.45;0.68;;;;;;;;;;5022590;28;20093;-48
2023/07/22 06:22:23;;;;;;;2.35;0.73;;;;;;;;;;5028201;28;20029;-49
2023/07/22 06:24:49;;;;;;;2.85;0.80;;;;;;;;;;5041995;28;20029;-52
2023/07/22 06:27:16;;;;;;;2.08;0.80;;;;;;;;;;5042094;28;20017;-53
2023/07/22 06:29:42;;;;;;;1.65;0.65;;;;;;;;;;5032583;28;20200;-47
2023/07/22 06:32:09;;;;;;;1.50;0.90;;;;;;;;;;5032812;28;20097;-46
2023/07/22 06:34:36;;;;;;;2.92;0.70;;;;;;;;;;5022367;28;20026;-53
2023/07/22 06:37:02;;;;;;;0.82;0.52;;;;;;;;;;5022152;28;20041;-60
2023/07/22 06:39:29;;;;;;;2.45;0.57;;;;;;;;;;5022040;28;20038;-53
2023/07/22 06:41:56;;;;;;;1.80;0.60;;;;;;;;;;5024914;28;20025;-50
2023/07/22 06:44:22;;;;;;;1.80;0.60;;;;;;;;;;5041499;28;20036;-60
2023/07/22 06:46:49;;;;;;;2.67;0.60;;;;;;;;;;5041482;28;20030;-50
2023/07/22 06:49:16;;;;;;;2.60;0.60;;;;;;;;;;5041978;28;20333;-46
2023/07/22 06:51:42;;;;;;;2.70;0.50;;;;;;;;;;5039610;28;20239;-48
2023/07/22 06:54:09;;;;;;;2.17;0.60;;;;;;;;;;5041343;28;20201;-50
2023/07/22 06:56:36;;;;;;;2.45;0.60;;;;;;;;;;5041994;28;20337;-52
2023/07/22 06:59:02;;;;;;;1.85;0.63;;;;;;;;;;5042125;28;20018;-53
2023/07/22 07:01:29;;;;;;;0.68;0.40;;;;;;;;;;5033734;28;20218;-53
2023/07/22 07:03:56;;;;;;;1.95;0.63;;;;;;;;;;5022053;28;20195;-54
2023/07/22 07:06:22;;;;;;;1.42;0.50;;;;;;;;;;5021751;28;20264;-49
2023/07/22 07:08:49;;;;;;;0.98;0.60;;;;;;;;;;5022547;28;20206;-51
2023/07/22 07:11:16;;;;;;;1.40;0.50;;;;;;;;;;5021655;28;20097;-53
2023/07/22 07:13:42;;;;;;;6.25;0.70;;;;;;;;;;5022308;28;20026;-57
2023/07/22 07:16:29;;;;;;;4.90;0.80;;;;;;;;;;5021528;28;20045;-47
2023/07/22 07:18:56;;;;;;;0.70;0.70;;;;;;;;;;5021991;28;20062;-48
2023/07/22 07:21:23;;;;;;;2.90;0.73;;;;;;;;;;5021401;28;20038;-46
2023/07/22 07:23:49;;;;;;;1.70;0.93;;;;;;;;;;5021732;28;20014;-46
2023/07/22 07:26:16;;;;;;;2.28;0.90;;;;;;;;;;5021703;28;20026;-53
2023/07/22 07:28:43;;;;;;;1.48;0.60;;;;;;;;;;5021790;28;20091;-54
2023/07/22 07:31:09;;;;;;;2.47;0.70;;;;;;;;;;5021180;28;20026;-55
2023/07/22 07:33:36;;;;;;;2.17;0.80;;;;;;;;;;5021199;28;20046;-49
2023/07/22 07:36:03;;;;;;;2.25;0.80;;;;;;;;;;5021280;28;20326;-50
2023/07/22 07:38:30;;;;;;;3.38;0.80;;;;;;;;;;5021832;28;20197;-52
2023/07/22 07:40:57;;;;;;;1.58;0.70;;;;;;;;;;5021615;28;20034;-49
2023/07/22 07:43:24;;;;;;;1.35;0.60;;;;;;;;;;5021883;28;20202;-49
2023/07/22 07:45:51;;;;;;;1.70;0.88;;;;;;;;;;5021063;28;20124;-50
2023/07/22 07:48:18;;;;;;;2.33;0.90;;;;;;;;;;5021699;28;20022;-54
2023/07/22 07:50:44;;;;;;;3.08;0.80;;;;;;;;;;5021530;28;20034;-50
2023/07/22 07:53:11;;;;;;;4.55;0.80;;;;;;;;;;5021519;28;20022;-52
2023/07/22 07:55:37;;;;;;;4.53;0.80;;;;;;;;;;5021606;28;20030;-49
2023/07/22 07:58:04;;;;;;;5.70;0.80;;;;;;;;;;5024653;28;20118;-54
2023/07/22 08:00:31;;;;;;;2.75;0.70;;;;;;;;;;5042117;28;20034;-51
2023/07/22 08:02:57;;;;;;;3.78;0.93;;;;;;;;;;5044340;28;20250;-55
2023/07/22 08:05:24;;;;;;;2.15;0.80;;;;;;;;;;5044229;28;20322;-55
2023/07/22 08:07:51;;;;;;;4.50;1.00;;;;;;;;;;5044194;28;20037;-51
2023/07/22 08:10:17;;;;;;;3.05;0.90;;;;;;;;;;5044171;28;20041;-52
2023/07/22 08:12:44;;;;;;;2.85;0.90;;;;;;;;;;5044414;28;20041;-49
2023/07/22 08:15:11;;;;;;;2.78;0.82;;;;;;;;;;5044061;28;20031;-49
2023/07/22 08:17:37;;;;;;;2.25;0.95;;;;;;;;;;5044705;28;20070;-50
2023/07/22 08:20:05;;;;;;;3.70;0.90;;;;;;;;;;5043894;28;20042;-50
2023/07/22 08:22:32;;;;;;;4.25;1.10;;;;;;;;;;5044162;28;20013;-54
2023/07/22 08:24:59;;;;;;;4.55;0.90;;;;;;;;;;5044013;28;20183;-58
2023/07/22 08:27:25;;;;;;;3.20;1.00;;;;;;;;;;5044429;28;20345;-51
2023/07/22 08:29:52;;;;;;;1.55;0.90;;;;;;;;;;5044123;28;20034;-51
2023/07/22 08:32:19;;;;;;;2.60;0.88;;;;;;;;;;5046808;28;20044;-54
2023/07/22 08:34:45;;;;;;;5.65;0.90;;;;;;;;;;5063968;28;20033;-56
2023/07/22 08:37:12;;;;;;;1.48;0.82;;;;;;;;;;5061819;28;20040;-46
2023/07/22 08:39:39;;;;;;;6.65;1.58;;;;;;;;;;5043946;28;20217;-47
2023/07/22 08:42:06;;;;;;;7.03;0.90;;;;;;;;;;5043790;28;20065;-48
2023/07/22 08:44:34;;;;;;;3.35;0.90;;;;;;;;;;5043501;28;20029;-49
2023/07/22 08:47:03;;;;;;;2.53;0.93;;;;;;;;;;5044023;28;20101;-50
2023/07/22 08:49:31;;;;;;;1.85;0.88;;;;;;;;;;5043550;28;20040;-48
2023/07/22 08:51:57;;;;;;;1.65;0.95;;;;;;;;;;5043589;28;20228;-57
2023/07/22 08:54:24;;;;;;;4.85;0.90;;;;;;;;;;5043104;28;20029;-50
2023/07/22 08:56:51;;;;;;;2.20;0.80;;;;;;;;;;5043131;28;20030;-49
2023/07/22 08:59:18;;;;;;;2.25;0.80;;;;;;;;;;5043368;28;20297;-51
2023/07/22 09:01:47;;;;;;;1.33;0.90;;;;;;;;;;5043139;28;20018;-54
2023/07/22 09:04:14;;;;;;;2.30;1.00;;;;;;;;;;5043755;28;20033;-55
2023/07/22 09:06:42;;;;;;;2.92;0.80;;;;;;;;;;5043179;28;20191;-56
2023/07/22 09:09:09;;;;;;;2.60;0.80;;;;;;;;;;5042956;28;20100;-50
2023/07/22 09:11:36;;;;;;;2.40;0.70;;;;;;;;;;5043283;28;20061;-47
2023/07/22 09:14:06;;;;;;;1.48;0.80;;;;;;;;;;5043962;28;20232;-57
2023/07/22 09:16:33;;;;;;;2.22;0.77;;;;;;;;;;5043218;28;20022;-59
2023/07/22 09:19:00;;;;;;;6.95;0.82;;;;;;;;;;5043319;28;20033;-50
2023/07/22 09:21:27;;;;;;;5.68;0.80;;;;;;;;;;5026105;28;20029;-54
2023/07/22 09:23:55;;;;;;;3.33;0.85;;;;;;;;;;5043092;28;20018;-54
2023/07/22 09:26:22;;;;;;;3.53;1.05;;;;;;;;;;5042845;28;20033;-57
2023/07/22 09:28:49;;;;;;;4.07;1.08;;;;;;;;;;5023972;28;20026;-53
2023/07/22 09:31:16;;;;;;;2.47;0.82;;;;;;;;;;5023200;28;20050;-51
2023/07/22 09:33:43;;;;;;;5.32;1.02;;;;;;;;;;5049283;28;20056;-51
2023/07/22 09:36:11;;;;;;;3.00;0.80;;;;;;;;;;5062896;28;20069;-50
2023/07/22 09:38:38;;;;;;;3.10;0.80;;;;;;;;;;5059807;28;20268;-56
2023/07/22 09:41:04;;;;;;;4.32;0.82;;;;;;;;;;5048738;28;20213;-52
2023/07/22 09:43:31;;;;;;;1.42;0.70;;;;;;;;;;5045587;28;20084;-59
2023/07/22 09:46:07;;;;;;;6.85;0.90;;;;;;;;;;5050895;28;20301;-52
2023/07/22 09:48:40;;;;;;;6.68;1.02;;;;;;;;;;5061845;28;20052;-53
2023/07/22 09:51:07;;;;;;;4.68;0.70;;;;;;;;;;5043660;28;20272;-48
2023/07/22 09:53:33;;;;;;;1.98;0.73;;;;;;;;;;5052270;28;20105;-50
2023/07/22 09:56:04;;;;;;;9.73;1.05;;;;;;;;;;5055275;28;20333;-53
2023/07/22 09:58:31;;;;;;;4.15;0.82;;;;;;;;;;5047893;28;20104;-52
2023/07/22 10:00:59;;;;;;;3.72;0.73;;;;;;;;;;5062380;28;20056;-49
2023/07/22 10:03:30;;;;;;;5.00;1.00;;;;;;;;;;5061103;28;20024;-53
2023/07/22 10:05:59;;;;;;;2.47;0.60;;;;;;;;;;5062495;28;20096;-48
2023/07/22 10:08:27;;;;;;;2.50;0.77;;;;;;;;;;5062201;28;20146;-48
2023/07/22 10:10:54;;;;;;;6.60;0.80;;;;;;;;;;5062811;28;20044;-52
2023/07/22 10:13:22;;;;;;;4.13;0.80;;;;;;;;;;5062460;28;20028;-55
2023/07/22 10:15:49;;;;;;;5.15;0.80;;;;;;;;;;5062248;28;20036;-51
2023/07/22 10:18:17;;;;;;;5.78;0.82;;;;;;;;;;5053175;28;20025;-53
2023/07/22 10:20:45;;;;;;;3.60;0.70;;;;;;;;;;5041307;28;20021;-56
2023/07/22 10:23:13;;;;;;;5.72;0.80;;;;;;;;;;5042040;28;20096;-51
2023/07/22 10:25:41;;;;;;;4.22;0.63;;;;;;;;;;5042169;28;20114;-53
2023/07/22 10:28:07;;;;;;;6.18;0.80;;;;;;;;;;5042170;28;20089;-52
2023/07/22 10:30:34;;;;;;;5.25;0.68;;;;;;;;;;5047721;28;20039;-52
2023/07/22 10:33:01;;;;;;;5.68;0.77;;;;;;;;;;5050913;28;20045;-55
2023/07/22 10:35:30;;;;;;;4.00;1.00;;;;;;;;;;5049479;28;20029;-49
2023/07/22 10:38:08;;;;;;;4.88;0.57;;;;;;;;;;5058198;28;20173;-53
2023/07/22 10:40:45;;;;;;;4.35;1.00;;;;;;;;;;5043700;28;20032;-55
2023/07/22 10:43:11;;;;;;;6.13;0.95;;;;;;;;;;5048017;28;20051;-59
2023/07/22 10:45:42;;;;;;;6.00;1.00;;;;;;;;;;5053606;28;20041;-58
2023/07/22 10:48:08;;;;;;;5.95;0.90;;;;;;;;;;5057202;28;20029;-49
2023/07/22 10:50:46;;;;;;;5.80;0.93;;;;;;;;;;5052051;28;20040;-57
2023/07/22 10:53:14;;;;;;;4.70;1.10;;;;;;;;;;5059890;28;20062;-50
2023/07/22 10:55:59;;;;;;;5.45;0.88;;;;;;;;;;5061676;28;20039;-53
2023/07/22 10:58:26;;;;;;;8.50;1.27;;;;;;;;;;5061519;28;20340;-52
2023/07/22 11:00:52;;;;;;;3.42;0.93;;;;;;;;;;5043049;28;20030;-51
2023/07/22 11:03:21;;;;;;;4.75;1.30;;;;;;;;;;5057045;28;20189;-52
2023/07/22 11:05:50;;;;;;;10.35;1.35;;;;;;;;;;5056382;28;20017;-59
2023/07/22 11:08:17;;;;;;;9.52;1.85;;;;;;;;;;5041800;28;20053;-47
2023/07/22 11:10:55;;;;;;;5.03;1.40;;;;;;;;;;5041406;28;20355;-50
2023/07/22 11:13:30;;;;;;;4.72;1.23;;;;;;;;;;5051090;28;20037;-54
2023/07/22 11:16:00;;;;;;;4.43;1.55;;;;;;;;;;5041375;28;20100;-50
2023/07/22 11:18:37;;;;;;;5.80;1.90;;;;;;;;;;5041465;28;20053;-48
2023/07/22 11:21:08;;;;;;;7.95;2.38;;;;;;;;;;5041368;28;20074;-52
2023/07/22 11:23:35;;;;;;;8.13;2.17;;;;;;;;;;5041721;28;20041;-54
2023/07/22 11:26:02;;;;;;;10.75;2.55;;;;;;;;;;5041203;28;20033;-52
2023/07/22 11:28:28;;;;;;;10.68;2.60;;;;;;;;;;5052154;28;20024;-49
2023/07/22 11:30:55;;;;;;;6.68;1.77;;;;;;;;;;5059779;28;20072;-41
2023/07/22 11:33:22;;;;;;;5.35;1.80;;;;;;;;;;5045352;28;20061;-38
2023/07/22 11:35:49;;;;;;;7.80;2.08;;;;;;;;;;5041261;28;20025;-42
2023/07/22 11:38:17;;;;;;;12.63;1.75;;;;;;;;;;5041767;28;20105;-49
2023/07/22 11:40:43;;;;;;;3.83;1.50;;;;;;;;;;5041055;28;20022;-49
2023/07/22 11:43:11;;;;;;;6.22;1.50;;;;;;;;;;5041092;28;20382;-42
2023/07/22 11:46:17;;;;;;;7.13;1.90;;;;;;;;;;5041181;28;20033;-50
2023/07/22 11:48:53;;;;;;;7.30;1.98;;;;;;;;;;5040629;28;20039;-46
2023/07/22 11:51:23;;;;;;;5.90;2.38;;;;;;;;;;5036175;28;20044;-56
2023/07/22 11:53:53;;;;;;;6.53;2.70;;;;;;;;;;5040852;28;20029;-42
2023/07/22 11:56:20;;;;;;;6.22;2.15;;;;;;;;;;5040986;28;20037;-47
2023/07/22 11:58:50;;;;;;;5.03;2.20;;;;;;;;;;5041721;28;20040;-42
2023/07/22 12:01:16;;;;;;;4.22;2.58;;;;;;;;;;5041837;28;20044;-42
2023/07/22 12:03:43;;;;;;;4.80;2.17;;;;;;;;;;5041296;28;20042;-48
2023/07/22 12:06:10;;;;;;;3.45;2.47;;;;;;;;;;5040921;28;20034;-47
2023/07/22 12:08:37;;;;;;;5.13;2.40;;;;;;;;;;5040864;28;20213;-52
2023/07/22 12:11:04;;;;;;;7.30;3.40;;;;;;;;;;5040918;28;20040;-45
2023/07/22 12:13:36;;;;;;;4.93;3.45;;;;;;;;;;5055044;28;20041;-54
2023/07/22 12:16:04;;;;;;;8.13;3.30;;;;;;;;;;5061052;28;20080;-41
2023/07/22 12:18:44;;;;;;;4.57;2.50;;;;;;;;;;5061020;28;20036;-45
2023/07/22 12:21:10;;;;;;;5.45;2.35;;;;;;;;;;5060354;28;20032;-52
2023/07/22 12:23:38;;;;;;;5.68;1.88;;;;;;;;;;5045774;28;20057;-48
2023/07/22 12:26:07;;;;;;;6.82;1.40;;;;;;;;;;5040677;28;20017;-42
2023/07/22 12:28:34;;;;;;;4.70;1.20;;;;;;;;;;5040649;28;20022;-42
2023/07/22 12:31:02;;;;;;;7.38;1.50;;;;;;;;;;5040652;28;20029;-45
2023/07/22 12:33:29;;;;;;;5.60;1.27;;;;;;;;;;5051395;28;20345;-47
2023/07/22 12:35:56;;;;;;;8.55;1.50;;;;;;;;;;5060435;28;20113;-50
2023/07/22 12:38:24;;;;;;;9.13;1.48;;;;;;;;;;5059962;28;20048;-44
2023/07/22 12:40:50;;;;;;;7.13;1.48;;;;;;;;;;5060825;28;20036;-46
2023/07/22 12:43:19;;;;;;;8.70;1.50;;;;;;;;;;5062919;28;20024;-45
2023/07/22 12:45:45;;;;;;;10.02;1.42;;;;;;;;;;5063809;28;20028;-42
2023/07/22 12:48:12;;;;;;;9.00;1.60;;;;;;;;;;5064181;28;20049;-48
2023/07/22 12:50:39;;;;;;;6.60;1.23;;;;;;;;;;5063691;28;20021;-45
2023/07/22 12:53:07;;;;;;;4.45;1.30;;;;;;;;;;5063506;28;20355;-44
2023/07/22 12:55:33;;;;;;;3.80;1.20;;;;;;;;;;5063443;28;20059;-40
2023/07/22 12:58:00;;;;;;;3.22;1.20;;;;;;;;;;5045834;28;20216;-51
2023/07/22 13:00:27;;;;;;;4.43;1.33;;;;;;;;;;5063320;28;20036;-48
2023/07/22 13:02:53;;;;;;;4.22;1.40;;;;;;;;;;5063697;28;20037;-42
2023/07/22 13:05:20;;;;;;;3.28;1.10;;;;;;;;;;5063427;28;20045;-48
2023/07/22 13:07:47;;;;;;;3.95;1.10;;;;;;;;;;5063525;28;20036;-42
2023/07/22 13:10:21;;;;;;;1.70;1.05;;;;;;;;;;5063926;28;20210;-47
2023/07/22 13:12:48;;;;;;;2.38;0.93;;;;;;;;;;5063587;28;20017;-47
2023/07/22 13:15:14;;;;;;;3.60;1.15;;;;;;;;;;5045307;28;20052;-45
2023/07/22 13:17:42;;;;;;;8.32;3.58;;;;;;;;;;5063105;28;20088;-47
2023/07/22 13:20:09;;;;;;;3.10;1.73;;;;;;;;;;5063341;28;20194;-51
2023/07/22 13:22:42;;;;;;;3.25;1.50;;;;;;;;;;5063807;28;20052;-52
2023/07/22 13:25:11;;;;;;;3.78;1.60;;;;;;;;;;5063175;28;20338;-50
2023/07/22 13:27:40;;;;;;;2.33;1.30;;;;;;;;;;5063060;28;20070;-46
2023/07/22 13:30:08;;;;;;;4.10;1.20;;;;;;;;;;5053228;28;20260;-41
2023/07/22 13:32:34;;;;;;;1.95;1.10;;;;;;;;;;5042771;28;20102;-48
2023/07/22 13:35:23;;;;;;;1.85;1.20;;;;;;;;;;5043060;28;20029;-47
2023/07/22 13:37:50;;;;;;;3.75;1.25;;;;;;;;;;5043329;28;20017;-47
2023/07/22 13:40:19;;;;;;;1.63;0.98;;;;;;;;;;5043323;28;20045;-47
2023/07/22 13:42:46;;;;;;;1.70;1.10;;;;;;;;;;5042866;28;20314;-44
2023/07/22 13:45:13;;;;;;;4.10;1.02;;;;;;;;;;5043276;28;20247;-45
2023/07/22 13:47:39;;;;;;;2.40;0.90;;;;;;;;;;5043088;28;20088;-41
2023/07/22 13:50:06;;;;;;;2.60;0.80;;;;;;;;;;5042653;28;20034;-43
2023/07/22 13:52:34;;;;;;;2.03;0.93;;;;;;;;;;5042705;28;20025;-48
2023/07/22 13:55:04;;;;;;;1.80;1.13;;;;;;;;;;5041718;28;20032;-52
2023/07/22 13:57:33;;;;;;;1.50;0.80;;;;;;;;;;5066237;28;20048;-49
2023/07/22 14:00:08;;;;;;;2.42;1.35;;;;;;;;;;5071384;28;20088;-41
2023/07/22 14:02:35;;;;;;;5.95;5.30;;;;;;;;;;5050970;28;20033;-42
2023/07/22 14:05:02;;;;;;;3.70;3.33;;;;;;;;;;5050995;28;20030;-48
2023/07/22 14:07:28;;;;;;;4.18;2.70;;;;;;;;;;5073562;28;20224;-49
2023/07/22 14:09:55;;;;;;;4.25;2.42;;;;;;;;;;5051147;28;20017;-43
2023/07/22 14:12:21;;;;;;;3.72;2.20;;;;;;;;;;5063622;28;20032;-44
2023/07/22 14:14:48;;;;;;;3.88;2.00;;;;;;;;;;5055428;28;20101;-44
2023/07/22 14:17:15;;;;;;;3.17;1.80;;;;;;;;;;5046073;28;20062;-43
2023/07/22 14:19:41;;;;;;;2.70;1.50;;;;;;;;;;5055164;28;20033;-48
2023/07/22 14:22:08;;;;;;;5.07;1.50;;;;;;;;;;5051887;28;20028;-40
2023/07/22 14:24:35;;;;;;;1.85;0.80;;;;;;;;;;5052122;28;20201;-42
2023/07/22 14:27:04;;;;;;;2.65;1.02;;;;;;;;;;5047599;28;20309;-50
2023/07/22 14:29:31;;;;;;;1.13;1.00;;;;;;;;;;5042620;28;20082;-47
2023/07/22 14:31:58;;;;;;;2.05;0.90;;;;;;;;;;5047605;27;20042;-40
2023/07/22 14:34:25;;;;;;;3.95;0.80;;;;;;;;;;5046746;27;20086;-41
2023/07/22 14:36:52;;;;;;;1.77;0.70;;;;;;;;;;5042440;28;20025;-50
2023/07/22 14:39:29;;;;;;;2.75;0.70;;;;;;;;;;5057956;28;20017;-46
2023/07/22 14:42:17;;;;;;;2.28;0.70;;;;;;;;;;5062367;28;20017;-40
2023/07/22 14:44:43;;;;;;;1.15;0.80;;;;;;;;;;5060212;28;20055;-41
2023/07/22 14:47:37;;;;;;;2.60;1.52;;;;;;;;;;5052192;28;20028;-46
2023/07/22 14:50:04;;;;;;;1.42;1.20;;;;;;;;;;5070157;28;20059;-47
2023/07/22 14:53:09;;;;;;;;;;;;;;;;;;;;;